Time;durP1;ratioP1;P1;durP2;ratioP2;P2;SDS_P1;SDS_P2;PMS_P1;PMS_P2;Temp;Humidity;BMP_temperature;BMP_pressure;BME280_temperature;BME280_humidity;BME280_pressure;Samples;Min_cycle;Max_cycle;Signal;HPM_P1;HPM_P2
2022/11/10 00:07:13;;;;;;;;;;;;;;;7.90;81.33;98672.94;420782;1298;99255;-41
2022/11/10 00:17:15;;;;;;;;;;;;;;;7.96;81.33;98677.99;420852;1298;107466;-41
2022/11/10 00:27:18;;;;;;;;;;;;;;;8.01;81.37;98682.63;420763;1298;99227;-41
2022/11/10 00:37:21;;;;;;;;;;;;;;;7.98;81.45;98671.83;420698;1298;114339;-41
2022/11/10 00:47:23;;;;;;;;;;;;;;;7.91;81.33;98675.08;420779;1298;109529;-41
2022/11/10 00:57:26;;;;;;;;;;;;;;;7.87;81.51;98679.07;420832;1297;99352;-41
2022/11/10 01:07:29;;;;;;;;;;;;;;;7.88;81.69;98688.41;421026;1298;108560;-41
2022/11/10 01:17:32;;;;;;;;;;;;;;;7.86;81.78;98701.02;420792;1298;98841;-41
2022/11/10 01:27:35;;;;;;;;;;;;;;;7.85;81.80;98711.20;420815;1296;111701;-41
2022/11/10 01:37:39;;;;;;;;;;;;;;;7.83;81.83;98711.05;420709;1298;108278;-41
2022/11/10 01:47:42;;;;;;;;;;;;;;;7.84;81.99;98717.77;420624;1300;99260;-41
2022/11/10 01:57:45;;;;;;;;;;;;;;;7.93;82.06;98723.59;420856;1298;309837;-41
2022/11/10 02:07:48;;;;;;;;;;;;;;;8.02;82.13;98724.99;420728;1298;97946;-42
2022/11/10 02:17:50;;;;;;;;;;;;;;;8.11;82.14;98727.48;421494;1275;110709;-40
2022/11/10 02:27:53;;;;;;;;;;;;;;;8.18;82.26;98738.52;420391;1293;106647;-40
2022/11/10 02:37:56;;;;;;;;;;;;;;;8.24;82.28;98742.87;420528;1292;99195;-40
2022/11/10 02:47:59;;;;;;;;;;;;;;;8.28;82.26;98745.73;420283;1299;108393;-40
2022/11/10 02:58:01;;;;;;;;;;;;;;;8.30;82.23;98756.17;420350;1301;99230;-41
2022/11/10 03:08:04;;;;;;;;;;;;;;;8.29;82.23;98764.01;419999;1301;111438;-42
2022/11/10 03:18:07;;;;;;;;;;;;;;;8.30;82.32;98768.70;420781;1297;106956;-40
2022/11/10 03:28:10;;;;;;;;;;;;;;;8.34;82.32;98777.25;420667;1299;99447;-40
2022/11/10 03:38:13;;;;;;;;;;;;;;;8.40;82.38;98779.90;420426;1301;108027;-40
2022/11/10 03:48:15;;;;;;;;;;;;;;;8.44;82.31;98789.80;420138;1300;99216;-40
2022/11/10 03:58:18;;;;;;;;;;;;;;;8.39;82.32;98792.27;420207;1301;112076;-40
2022/11/10 04:18:41;;;;;;;;;;;;;;;8.39;82.57;98813.35;420318;1300;99283;-40
2022/11/10 04:28:43;;;;;;;;;;;;;;;8.41;82.50;98818.60;420299;1301;108364;-40
2022/11/10 04:38:46;;;;;;;;;;;;;;;8.42;82.54;98831.57;420406;1297;99234;-40
2022/11/10 04:48:49;;;;;;;;;;;;;;;8.41;82.57;98845.20;420289;1301;110881;-40
2022/11/10 04:58:53;;;;;;;;;;;;;;;8.43;82.64;98847.50;420264;1301;108047;-41
2022/11/10 05:08:55;;;;;;;;;;;;;;;8.44;82.66;98860.58;420383;1295;99228;-42
2022/11/10 05:18:58;;;;;;;;;;;;;;;8.43;82.79;98868.98;420206;1301;107655;-42
2022/11/10 05:29:01;;;;;;;;;;;;;;;8.40;82.87;98877.30;420194;1300;99817;-39
2022/11/10 05:39:03;;;;;;;;;;;;;;;8.34;82.92;98893.05;420307;1295;112376;-39
2022/11/10 05:49:06;;;;;;;;;;;;;;;8.32;83.21;98909.88;420107;1300;108148;-39
2022/11/10 05:59:08;;;;;;;;;;;;;;;8.29;83.31;98929.45;420211;1297;99262;-41
2022/11/10 06:09:11;;;;;;;;;;;;;;;8.37;83.63;98948.86;420351;1291;108583;-41
2022/11/10 06:19:13;;;;;;;;;;;;;;;8.45;83.72;98969.02;420240;1301;99185;-41
2022/11/10 06:29:16;;;;;;;;;;;;;;;8.50;83.78;98979.92;420529;1298;111039;-41
2022/11/10 06:39:18;;;;;;;;;;;;;;;8.60;84.03;98987.32;420229;1291;108636;-42
2022/11/10 06:49:21;;;;;;;;;;;;;;;8.68;83.94;99002.98;420694;1300;99246;-41
2022/11/10 06:59:23;;;;;;;;;;;;;;;8.70;84.02;99010.43;420591;1301;107768;-39
2022/11/10 07:09:26;;;;;;;;;;;;;;;8.70;84.21;99029.98;420546;1300;99284;-39
2022/11/10 07:19:31;;;;;;;;;;;;;;;8.79;84.20;99055.23;420462;1300;111459;-42
2022/11/10 07:29:34;;;;;;;;;;;;;;;8.89;84.35;99064.20;420292;1297;108456;-40
2022/11/10 07:39:36;;;;;;;;;;;;;;;8.95;84.51;99068.68;420432;1295;99299;-40
2022/11/10 07:49:39;;;;;;;;;;;;;;;8.99;84.58;99079.91;420603;1301;109433;-39
2022/11/10 07:59:41;;;;;;;;;;;;;;;9.05;84.74;99090.73;420117;1301;99259;-40
2022/11/10 08:09:44;;;;;;;;;;;;;;;9.11;84.79;99103.45;420150;1301;112760;-41
2022/11/10 08:19:47;;;;;;;;;;;;;;;9.27;85.11;99115.16;420384;1301;108509;-41
2022/11/10 08:29:50;;;;;;;;;;;;;;;9.56;85.14;99134.08;420200;1301;99204;-41
2022/11/10 08:39:52;;;;;;;;;;;;;;;9.88;85.28;99143.02;420149;1300;109402;-39
2022/11/10 08:49:55;;;;;;;;;;;;;;;10.43;85.45;99155.39;420028;1294;99278;-39
2022/11/10 08:59:58;;;;;;;;;;;;;;;10.92;85.28;99169.45;420262;1301;112306;-42
2022/11/10 09:10:00;;;;;;;;;;;;;;;11.04;85.25;99182.15;420270;1300;108320;-38
2022/11/10 09:20:11;;;;;;;;;;;;;;;11.39;85.11;99195.88;420168;1301;99213;-39
2022/11/10 09:40:21;;;;;;;;;;;;;;;11.87;85.01;99223.06;420301;1301;97984;-41
2022/11/10 09:50:24;;;;;;;;;;;;;;;11.99;84.68;99233.77;420153;1298;111977;-41
2022/11/10 10:00:30;;;;;;;;;;;;;;;11.86;84.74;99244.72;420282;1300;107713;-41
2022/11/10 10:10:32;;;;;;;;;;;;;;;11.88;84.71;99249.50;420384;1301;99177;-39
2022/11/10 10:20:41;;;;;;;;;;;;;;;12.09;84.68;99261.25;420207;1301;109355;-40
2022/11/10 10:30:44;;;;;;;;;;;;;;;12.24;84.43;99266.96;420355;1300;99259;-40
2022/11/10 10:40:48;;;;;;;;;;;;;;;12.40;84.27;99268.70;420507;1297;112245;-39
2022/11/10 10:50:51;;;;;;;;;;;;;;;12.59;83.91;99268.23;420494;1299;108053;-40
2022/11/10 11:00:53;;;;;;;;;;;;;;;12.43;83.44;99283.15;420109;1291;99976;-41
2022/11/10 11:11:05;;;;;;;;;;;;;;;12.27;83.39;99289.43;419851;1292;108173;-41
2022/11/10 11:21:08;;;;;;;;;;;;;;;12.50;83.19;99288.77;420213;1301;99272;-40
2022/11/10 11:31:10;;;;;;;;;;;;;;;12.57;82.93;99296.62;420132;1300;112153;-41
2022/11/10 11:41:13;;;;;;;;;;;;;;;12.75;82.48;99300.76;420469;1299;107461;-40
2022/11/10 12:01:22;;;;;;;;;;;;;;;12.92;81.68;99310.63;420807;1284;109660;-40
2022/11/10 12:11:24;;;;;;;;;;;;;;;12.71;81.43;99322.13;420513;1299;99163;-39
2022/11/10 12:21:27;;;;;;;;;;;;;;;12.81;81.56;99326.64;420253;1301;111378;-40
2022/11/10 12:31:32;;;;;;;;;;;;;;;12.88;81.13;99329.36;420331;1298;108482;-39
2022/11/10 12:41:34;;;;;;;;;;;;;;;12.76;80.65;99348.85;420115;1301;98883;-39
2022/11/10 12:51:38;;;;;;;;;;;;;;;12.62;80.51;99361.38;420594;1301;107024;-40
2022/11/10 13:01:42;;;;;;;;;;;;;;;12.54;80.26;99372.75;420106;1298;99234;-40
2022/11/10 13:12:02;;;;;;;;;;;;;;;12.38;80.04;99380.00;420245;1290;111116;-40
2022/11/10 13:22:08;;;;;;;;;;;;;;;12.33;80.13;99389.99;420175;1301;106447;-41
2022/11/10 13:42:26;;;;;;;;;;;;;;;12.25;79.78;99407.31;420277;1301;109407;-41
2022/11/10 13:52:29;;;;;;;;;;;;;;;12.19;79.63;99421.29;419597;1301;304723;-41
2022/11/10 14:02:48;;;;;;;;;;;;;;;12.09;79.46;99433.89;420292;1298;112125;-41
2022/11/10 14:12:55;;;;;;;;;;;;;;;11.87;79.46;99448.05;420274;1301;108446;-43
2022/11/10 14:22:59;;;;;;;;;;;;;;;11.73;79.52;99458.65;420297;1297;117131;-39
2022/11/10 14:43:05;;;;;;;;;;;;;;;11.25;79.50;99481.81;420619;1301;98047;-39
2022/11/10 14:53:13;;;;;;;;;;;;;;;11.00;79.77;99492.33;420219;1301;112979;-40
2022/11/10 15:03:18;;;;;;;;;;;;;;;10.79;79.78;99500.61;420503;1301;110032;-40
2022/11/10 15:13:23;;;;;;;;;;;;;;;10.65;79.98;99512.34;420138;1301;99256;-40
2022/11/10 15:23:30;;;;;;;;;;;;;;;10.52;80.08;99521.73;420012;1301;108517;-39
2022/11/10 15:33:35;;;;;;;;;;;;;;;10.31;80.11;99536.37;419964;1301;99230;-40
2022/11/10 15:53:42;;;;;;;;;;;;;;;9.93;80.14;99571.39;420357;1298;106585;-41
2022/11/10 16:03:45;;;;;;;;;;;;;;;9.71;80.27;99579.21;420277;1301;99270;-40
2022/11/10 16:13:49;;;;;;;;;;;;;;;9.51;80.44;99586.69;420450;1301;107004;-40
2022/11/10 16:23:52;;;;;;;;;;;;;;;9.43;80.80;99606.95;420378;1296;99253;-40
2022/11/10 16:33:55;;;;;;;;;;;;;;;9.37;80.84;99620.79;420358;1301;112978;-41
2022/11/10 16:43:58;;;;;;;;;;;;;;;9.30;81.09;99647.33;419916;1301;107320;-41
2022/11/10 16:54:00;;;;;;;;;;;;;;;9.17;81.00;99672.42;420134;1297;99233;-41
2022/11/10 17:04:04;;;;;;;;;;;;;;;9.04;81.16;99692.86;420181;1301;107744;-40
2022/11/10 17:14:08;;;;;;;;;;;;;;;8.92;81.23;99708.67;420362;1301;99377;-42
2022/11/10 17:24:11;;;;;;;;;;;;;;;8.81;81.37;99718.39;420281;1300;111580;-39
2022/11/10 17:34:13;;;;;;;;;;;;;;;8.70;81.52;99727.54;420321;1301;108079;-38
2022/11/10 17:44:16;;;;;;;;;;;;;;;8.53;81.50;99739.31;420099;1301;98840;-39
2022/11/10 17:54:19;;;;;;;;;;;;;;;8.33;81.72;99739.88;420041;1296;108342;-39
2022/11/10 18:04:22;;;;;;;;;;;;;;;8.18;81.71;99737.73;420212;1297;98034;-39
2022/11/10 18:14:24;;;;;;;;;;;;;;;8.02;81.90;99740.23;420074;1301;111693;-39
2022/11/10 18:24:27;;;;;;;;;;;;;;;7.93;82.10;99742.85;420122;1302;108630;-39
2022/11/10 18:34:30;;;;;;;;;;;;;;;7.84;82.26;99743.48;420188;1300;99243;-39
2022/11/10 18:54:36;;;;;;;;;;;;;;;7.70;82.46;99755.94;419672;1307;99240;-41
2022/11/10 19:04:39;;;;;;;;;;;;;;;7.62;82.49;99769.41;420080;1305;111771;-41
2022/11/10 19:14:41;;;;;;;;;;;;;;;7.51;82.58;99771.95;420003;1302;108809;-41
2022/11/10 19:24:44;;;;;;;;;;;;;;;7.43;82.91;99792.73;419901;1294;99256;-41
2022/11/10 19:35:06;;;;;;;;;;;;;;;7.38;82.86;99824.30;420083;1302;107900;-41
2022/11/10 19:45:08;;;;;;;;;;;;;;;7.25;82.90;99838.45;420095;1303;99210;-41
2022/11/10 19:55:11;;;;;;;;;;;;;;;7.18;83.07;99843.83;420266;1300;112778;-41
2022/11/10 20:05:15;;;;;;;;;;;;;;;7.19;83.32;99858.09;420112;1302;108743;-41
2022/11/10 20:15:17;;;;;;;;;;;;;;;7.21;83.43;99869.98;420199;1303;99348;-41
2022/11/10 20:25:20;;;;;;;;;;;;;;;7.17;83.59;99862.81;420094;1300;107806;-41
2022/11/10 20:35:23;;;;;;;;;;;;;;;7.12;83.53;99867.91;420194;1301;99391;-41
2022/11/10 20:45:25;;;;;;;;;;;;;;;7.04;83.59;99871.05;420267;1304;111327;-41
2022/11/10 20:55:28;;;;;;;;;;;;;;;7.05;83.91;99871.77;419994;1305;108304;-41
2022/11/10 21:05:51;;;;;;;;;;;;;;;7.15;84.08;99877.55;419978;1298;98873;-42
2022/11/10 21:15:55;;;;;;;;;;;;;;;7.25;84.04;99872.27;420197;1305;108347;-41
2022/11/10 21:25:59;;;;;;;;;;;;;;;7.28;83.86;99879.10;420061;1295;98839;-41
2022/11/10 21:36:04;;;;;;;;;;;;;;;7.26;84.03;99883.40;419984;1301;111072;-42
2022/11/10 21:46:07;;;;;;;;;;;;;;;7.21;83.88;99882.44;420081;1302;108023;-40
2022/11/10 21:56:10;;;;;;;;;;;;;;;7.15;83.88;99880.35;419901;1301;99256;-40
2022/11/10 22:06:14;;;;;;;;;;;;;;;7.09;84.02;99890.31;420096;1301;109408;-40
2022/11/10 22:26:41;;;;;;;;;;;;;;;7.03;84.18;99895.85;420158;1298;111958;-40
2022/11/10 22:46:49;;;;;;;;;;;;;;;6.86;84.05;99879.27;419954;1301;99168;-39
2022/11/10 22:56:52;;;;;;;;;;;;;;;6.79;84.21;99892.66;420073;1301;107499;-39
2022/11/10 23:06:55;;;;;;;;;;;;;;;6.73;84.24;99899.85;419989;1301;98049;-39
2022/11/10 23:16:57;;;;;;;;;;;;;;;6.65;84.22;99900.29;420257;1301;112573;-40
2022/11/10 23:27:00;;;;;;;;;;;;;;;6.63;84.33;99913.58;420060;1300;107314;-41
2022/11/10 23:37:03;;;;;;;;;;;;;;;6.59;84.36;99925.98;419924;1301;99292;-40
2022/11/10 23:47:05;;;;;;;;;;;;;;;6.53;84.33;99926.72;420063;1301;108535;-40
2022/11/10 23:57:08;;;;;;;;;;;;;;;6.46;84.33;99936.59;419988;1301;99227;-40
